sensor_id;sensor_type;location;lat;lon;timestamp;temperature;humidity
64961;SHT31;51487;52.266;10.542;2023-06-22T00:00:50;20.83;83.29
64961;SHT31;51487;52.266;10.542;2023-06-22T00:03:18;20.80;83.49
64961;SHT31;51487;52.266;10.542;2023-06-22T00:05:45;20.71;83.74
64961;SHT31;51487;52.266;10.542;2023-06-22T00:08:11;20.63;83.99
64961;SHT31;51487;52.266;10.542;2023-06-22T00:10:37;20.62;83.94
64961;SHT31;51487;52.266;10.542;2023-06-22T00:13:03;20.54;84.23
64961;SHT31;51487;52.266;10.542;2023-06-22T00:15:29;20.52;84.33
64961;SHT31;51487;52.266;10.542;2023-06-22T00:17:55;20.52;84.06
64961;SHT31;51487;52.266;10.542;2023-06-22T00:20:23;20.47;83.79
64961;SHT31;51487;52.266;10.542;2023-06-22T00:22:48;20.39;83.42
64961;SHT31;51487;52.266;10.542;2023-06-22T00:25:14;20.16;83.92
64961;SHT31;51487;52.266;10.542;2023-06-22T00:27:39;20.15;84.72
64961;SHT31;51487;52.266;10.542;2023-06-22T00:30:06;20.09;86.53
64961;SHT31;51487;52.266;10.542;2023-06-22T00:32:32;19.99;86.95
64961;SHT31;51487;52.266;10.542;2023-06-22T00:34:57;19.96;87.19
64961;SHT31;51487;52.266;10.542;2023-06-22T00:37:23;19.92;87.48
64961;SHT31;51487;52.266;10.542;2023-06-22T00:39:51;19.82;87.60
64961;SHT31;51487;52.266;10.542;2023-06-22T00:42:17;19.82;87.61
64961;SHT31;51487;52.266;10.542;2023-06-22T00:44:43;19.81;87.57
64961;SHT31;51487;52.266;10.542;2023-06-22T00:47:11;19.79;87.72
64961;SHT31;51487;52.266;10.542;2023-06-22T00:49:39;19.74;87.70
64961;SHT31;51487;52.266;10.542;2023-06-22T00:52:06;19.70;87.81
64961;SHT31;51487;52.266;10.542;2023-06-22T00:54:40;19.70;87.57
64961;SHT31;51487;52.266;10.542;2023-06-22T00:57:13;19.73;87.07
64961;SHT31;51487;52.266;10.542;2023-06-22T00:59:43;19.73;87.17
64961;SHT31;51487;52.266;10.542;2023-06-22T01:02:09;19.70;87.20
64961;SHT31;51487;52.266;10.542;2023-06-22T01:04:37;19.73;86.96
64961;SHT31;51487;52.266;10.542;2023-06-22T01:07:34;19.74;86.50
64961;SHT31;51487;52.266;10.542;2023-06-22T01:10:51;19.79;86.25
64961;SHT31;51487;52.266;10.542;2023-06-22T01:16:19;19.64;86.95
64961;SHT31;51487;52.266;10.542;2023-06-22T01:18:50;19.60;87.47
64961;SHT31;51487;52.266;10.542;2023-06-22T01:21:19;19.47;87.83
64961;SHT31;51487;52.266;10.542;2023-06-22T01:24:27;19.38;87.95
64961;SHT31;51487;52.266;10.542;2023-06-22T01:30:15;19.34;88.15
64961;SHT31;51487;52.266;10.542;2023-06-22T01:32:43;19.37;87.83
64961;SHT31;51487;52.266;10.542;2023-06-22T01:35:10;19.53;86.59
64961;SHT31;51487;52.266;10.542;2023-06-22T01:37:37;19.57;86.23
64961;SHT31;51487;52.266;10.542;2023-06-22T01:40:05;19.60;86.27
64961;SHT31;51487;52.266;10.542;2023-06-22T01:42:33;19.55;86.44
64961;SHT31;51487;52.266;10.542;2023-06-22T01:44:59;19.49;86.77
64961;SHT31;51487;52.266;10.542;2023-06-22T01:47:26;19.44;86.92
64961;SHT31;51487;52.266;10.542;2023-06-22T01:49:53;19.44;86.81
64961;SHT31;51487;52.266;10.542;2023-06-22T01:52:20;19.41;86.59
64961;SHT31;51487;52.266;10.542;2023-06-22T01:54:47;19.49;86.65
64961;SHT31;51487;52.266;10.542;2023-06-22T01:57:13;19.46;86.32
64961;SHT31;51487;52.266;10.542;2023-06-22T01:59:55;19.54;86.26
64961;SHT31;51487;52.266;10.542;2023-06-22T02:02:27;19.55;85.91
64961;SHT31;51487;52.266;10.542;2023-06-22T02:05:07;19.58;85.70
64961;SHT31;51487;52.266;10.542;2023-06-22T02:07:44;19.50;85.90
64961;SHT31;51487;52.266;10.542;2023-06-22T02:10:16;19.43;86.51
64961;SHT31;51487;52.266;10.542;2023-06-22T02:12:44;19.34;86.70
64961;SHT31;51487;52.266;10.542;2023-06-22T02:15:11;19.31;86.73
64961;SHT31;51487;52.266;10.542;2023-06-22T02:17:40;19.20;86.95
64961;SHT31;51487;52.266;10.542;2023-06-22T02:20:14;19.10;87.28
64961;SHT31;51487;52.266;10.542;2023-06-22T02:22:40;18.96;87.52
64961;SHT31;51487;52.266;10.542;2023-06-22T02:25:07;18.88;87.61
64961;SHT31;51487;52.266;10.542;2023-06-22T02:27:32;18.86;87.58
64961;SHT31;51487;52.266;10.542;2023-06-22T02:29:58;18.78;87.95
64961;SHT31;51487;52.266;10.542;2023-06-22T02:32:23;18.76;87.82
64961;SHT31;51487;52.266;10.542;2023-06-22T02:34:49;18.69;88.00
64961;SHT31;51487;52.266;10.542;2023-06-22T02:37:14;18.69;88.15
64961;SHT31;51487;52.266;10.542;2023-06-22T02:39:40;18.69;88.13
64961;SHT31;51487;52.266;10.542;2023-06-22T02:42:06;18.69;88.17
64961;SHT31;51487;52.266;10.542;2023-06-22T02:44:32;18.75;87.82
64961;SHT31;51487;52.266;10.542;2023-06-22T02:46:58;18.78;87.63
64961;SHT31;51487;52.266;10.542;2023-06-22T02:49:24;18.79;87.35
64961;SHT31;51487;52.266;10.542;2023-06-22T02:51:50;18.86;87.27
64961;SHT31;51487;52.266;10.542;2023-06-22T02:54:16;18.91;87.03
64961;SHT31;51487;52.266;10.542;2023-06-22T02:56:42;18.95;86.71
64961;SHT31;51487;52.266;10.542;2023-06-22T02:59:11;18.96;86.67
64961;SHT31;51487;52.266;10.542;2023-06-22T03:01:37;18.95;86.74
64961;SHT31;51487;52.266;10.542;2023-06-22T03:04:06;18.94;86.79
64961;SHT31;51487;52.266;10.542;2023-06-22T03:06:33;18.91;86.37
64961;SHT31;51487;52.266;10.542;2023-06-22T03:09:04;18.96;86.20
64961;SHT31;51487;52.266;10.542;2023-06-22T03:11:31;18.95;86.03
64961;SHT31;51487;52.266;10.542;2023-06-22T03:13:57;19.05;85.84
64961;SHT31;51487;52.266;10.542;2023-06-22T03:16:23;19.06;85.42
64961;SHT31;51487;52.266;10.542;2023-06-22T03:18:48;19.07;85.50
64961;SHT31;51487;52.266;10.542;2023-06-22T03:21:14;19.03;85.68
64961;SHT31;51487;52.266;10.542;2023-06-22T03:23:41;19.09;85.56
64961;SHT31;51487;52.266;10.542;2023-06-22T03:26:08;19.15;85.45
64961;SHT31;51487;52.266;10.542;2023-06-22T03:28:34;19.20;85.38
64961;SHT31;51487;52.266;10.542;2023-06-22T03:30:59;19.19;85.31
64961;SHT31;51487;52.266;10.542;2023-06-22T03:33:25;19.12;85.62
64961;SHT31;51487;52.266;10.542;2023-06-22T03:35:50;19.19;85.63
64961;SHT31;51487;52.266;10.542;2023-06-22T03:38:17;19.26;85.40
64961;SHT31;51487;52.266;10.542;2023-06-22T03:40:43;19.34;85.24
64961;SHT31;51487;52.266;10.542;2023-06-22T03:43:08;19.40;85.10
64961;SHT31;51487;52.266;10.542;2023-06-22T03:45:34;19.47;84.64
64961;SHT31;51487;52.266;10.542;2023-06-22T03:48:01;19.57;84.15
64961;SHT31;51487;52.266;10.542;2023-06-22T03:50:27;19.73;84.13
64961;SHT31;51487;52.266;10.542;2023-06-22T03:52:52;19.77;83.77
64961;SHT31;51487;52.266;10.542;2023-06-22T03:55:20;19.78;84.05
64961;SHT31;51487;52.266;10.542;2023-06-22T03:57:45;19.89;83.57
64961;SHT31;51487;52.266;10.542;2023-06-22T04:00:12;19.94;83.16
64961;SHT31;51487;52.266;10.542;2023-06-22T04:02:38;19.88;83.22
64961;SHT31;51487;52.266;10.542;2023-06-22T04:05:04;19.94;83.33
64961;SHT31;51487;52.266;10.542;2023-06-22T04:07:30;20.02;83.15
64961;SHT31;51487;52.266;10.542;2023-06-22T04:09:55;20.01;83.28
64961;SHT31;51487;52.266;10.542;2023-06-22T04:12:21;20.05;83.04
64961;SHT31;51487;52.266;10.542;2023-06-22T04:14:46;20.05;82.75
64961;SHT31;51487;52.266;10.542;2023-06-22T04:17:12;20.08;82.67
64961;SHT31;51487;52.266;10.542;2023-06-22T04:19:40;20.08;82.55
64961;SHT31;51487;52.266;10.542;2023-06-22T04:22:05;20.01;82.82
64961;SHT31;51487;52.266;10.542;2023-06-22T04:24:33;19.99;83.27
64961;SHT31;51487;52.266;10.542;2023-06-22T04:26:59;20.02;83.62
64961;SHT31;51487;52.266;10.542;2023-06-22T04:29:29;20.05;83.60
64961;SHT31;51487;52.266;10.542;2023-06-22T04:31:56;20.06;83.72
64961;SHT31;51487;52.266;10.542;2023-06-22T04:34:24;20.12;83.11
64961;SHT31;51487;52.266;10.542;2023-06-22T04:36:51;20.13;82.85
64961;SHT31;51487;52.266;10.542;2023-06-22T04:39:17;20.15;83.04
64961;SHT31;51487;52.266;10.542;2023-06-22T04:41:44;20.22;82.96
64961;SHT31;51487;52.266;10.542;2023-06-22T04:44:18;20.30;82.42
64961;SHT31;51487;52.266;10.542;2023-06-22T04:46:56;20.33;82.48
64961;SHT31;51487;52.266;10.542;2023-06-22T04:49:35;20.37;82.63
64961;SHT31;51487;52.266;10.542;2023-06-22T04:52:07;20.33;82.21
64961;SHT31;51487;52.266;10.542;2023-06-22T04:54:34;20.39;81.96
64961;SHT31;51487;52.266;10.542;2023-06-22T04:57:02;20.49;81.46
64961;SHT31;51487;52.266;10.542;2023-06-22T04:59:29;20.56;81.06
64961;SHT31;51487;52.266;10.542;2023-06-22T05:02:00;20.67;80.54
64961;SHT31;51487;52.266;10.542;2023-06-22T05:04:27;20.76;79.89
64961;SHT31;51487;52.266;10.542;2023-06-22T05:06:54;20.85;79.75
64961;SHT31;51487;52.266;10.542;2023-06-22T05:09:21;20.85;80.04
64961;SHT31;51487;52.266;10.542;2023-06-22T05:11:47;20.77;80.00
64961;SHT31;51487;52.266;10.542;2023-06-22T05:14:13;20.80;79.59
64961;SHT31;51487;52.266;10.542;2023-06-22T05:16:41;20.77;79.26
64961;SHT31;51487;52.266;10.542;2023-06-22T05:19:07;20.88;79.33
64961;SHT31;51487;52.266;10.542;2023-06-22T05:21:33;20.95;79.30
64961;SHT31;51487;52.266;10.542;2023-06-22T05:23:59;20.94;79.36
64961;SHT31;51487;52.266;10.542;2023-06-22T05:26:33;21.05;79.53
64961;SHT31;51487;52.266;10.542;2023-06-22T05:29:02;21.10;79.52
64961;SHT31;51487;52.266;10.542;2023-06-22T05:31:28;21.07;79.30
64961;SHT31;51487;52.266;10.542;2023-06-22T05:33:54;21.14;79.11
64961;SHT31;51487;52.266;10.542;2023-06-22T05:36:20;21.20;79.36
64961;SHT31;51487;52.266;10.542;2023-06-22T05:38:46;21.29;79.36
64961;SHT31;51487;52.266;10.542;2023-06-22T05:41:12;21.39;78.76
64961;SHT31;51487;52.266;10.542;2023-06-22T05:43:39;21.52;78.49
64961;SHT31;51487;52.266;10.542;2023-06-22T05:46:04;21.53;78.07
64961;SHT31;51487;52.266;10.542;2023-06-22T05:48:31;21.60;78.20
64961;SHT31;51487;52.266;10.542;2023-06-22T05:50:56;21.83;77.56
64961;SHT31;51487;52.266;10.542;2023-06-22T05:53:22;21.83;77.33
64961;SHT31;51487;52.266;10.542;2023-06-22T05:55:48;21.90;77.23
64961;SHT31;51487;52.266;10.542;2023-06-22T05:58:14;21.97;76.98
64961;SHT31;51487;52.266;10.542;2023-06-22T06:00:40;22.06;77.05
64961;SHT31;51487;52.266;10.542;2023-06-22T06:03:10;22.07;77.12
64961;SHT31;51487;52.266;10.542;2023-06-22T06:05:37;22.14;77.23
64961;SHT31;51487;52.266;10.542;2023-06-22T06:08:05;22.06;77.30
64961;SHT31;51487;52.266;10.542;2023-06-22T06:10:33;22.04;77.42
64961;SHT31;51487;52.266;10.542;2023-06-22T06:12:59;22.10;77.62
64961;SHT31;51487;52.266;10.542;2023-06-22T06:15:28;22.18;77.69
64961;SHT31;51487;52.266;10.542;2023-06-22T06:17:54;22.20;77.93
64961;SHT31;51487;52.266;10.542;2023-06-22T06:20:22;22.24;78.02
64961;SHT31;51487;52.266;10.542;2023-06-22T06:22:48;22.20;78.06
64961;SHT31;51487;52.266;10.542;2023-06-22T06:25:15;22.30;77.77
64961;SHT31;51487;52.266;10.542;2023-06-22T06:27:46;22.34;77.31
64961;SHT31;51487;52.266;10.542;2023-06-22T06:30:14;22.45;77.26
64961;SHT31;51487;52.266;10.542;2023-06-22T06:32:41;22.44;77.56
64961;SHT31;51487;52.266;10.542;2023-06-22T06:35:09;22.52;77.66
64961;SHT31;51487;52.266;10.542;2023-06-22T06:37:44;22.64;76.68
64961;SHT31;51487;52.266;10.542;2023-06-22T06:40:12;22.68;76.70
64961;SHT31;51487;52.266;10.542;2023-06-22T06:42:39;22.89;76.27
64961;SHT31;51487;52.266;10.542;2023-06-22T06:45:08;22.89;76.01
64961;SHT31;51487;52.266;10.542;2023-06-22T06:47:34;22.81;76.13
64961;SHT31;51487;52.266;10.542;2023-06-22T06:49:59;22.82;76.08
64961;SHT31;51487;52.266;10.542;2023-06-22T06:52:25;22.73;76.46
64961;SHT31;51487;52.266;10.542;2023-06-22T06:54:51;22.67;76.46
64961;SHT31;51487;52.266;10.542;2023-06-22T06:57:18;22.64;76.84
64961;SHT31;51487;52.266;10.542;2023-06-22T06:59:45;22.61;76.78
64961;SHT31;51487;52.266;10.542;2023-06-22T07:02:11;22.57;76.98
64961;SHT31;51487;52.266;10.542;2023-06-22T07:04:37;22.48;77.59
64961;SHT31;51487;52.266;10.542;2023-06-22T07:07:02;22.67;77.37
64961;SHT31;51487;52.266;10.542;2023-06-22T07:09:28;22.78;76.73
64961;SHT31;51487;52.266;10.542;2023-06-22T07:11:54;22.94;76.91
64961;SHT31;51487;52.266;10.542;2023-06-22T07:14:19;22.88;77.00
64961;SHT31;51487;52.266;10.542;2023-06-22T07:16:45;23.05;76.87
64961;SHT31;51487;52.266;10.542;2023-06-22T07:19:12;23.06;76.52
64961;SHT31;51487;52.266;10.542;2023-06-22T07:21:38;23.24;76.09
64961;SHT31;51487;52.266;10.542;2023-06-22T07:24:05;23.51;76.55
64961;SHT31;51487;52.266;10.542;2023-06-22T07:26:32;23.57;76.15
64961;SHT31;51487;52.266;10.542;2023-06-22T07:28:57;23.49;75.35
64961;SHT31;51487;52.266;10.542;2023-06-22T07:31:26;23.74;74.60
64961;SHT31;51487;52.266;10.542;2023-06-22T07:33:52;23.81;75.30
64961;SHT31;51487;52.266;10.542;2023-06-22T07:36:18;24.02;74.04
64961;SHT31;51487;52.266;10.542;2023-06-22T07:38:44;24.02;74.19
64961;SHT31;51487;52.266;10.542;2023-06-22T07:41:10;24.11;74.04
64961;SHT31;51487;52.266;10.542;2023-06-22T07:43:35;24.18;73.34
64961;SHT31;51487;52.266;10.542;2023-06-22T07:46:05;24.26;73.32
64961;SHT31;51487;52.266;10.542;2023-06-22T07:48:31;24.33;73.47
64961;SHT31;51487;52.266;10.542;2023-06-22T07:50:57;24.46;73.29
64961;SHT31;51487;52.266;10.542;2023-06-22T07:53:24;24.48;72.93
64961;SHT31;51487;52.266;10.542;2023-06-22T07:55:50;24.53;73.13
64961;SHT31;51487;52.266;10.542;2023-06-22T07:58:16;24.70;73.10
64961;SHT31;51487;52.266;10.542;2023-06-22T08:00:44;24.74;72.77
64961;SHT31;51487;52.266;10.542;2023-06-22T08:03:09;24.86;72.65
64961;SHT31;51487;52.266;10.542;2023-06-22T08:05:35;24.86;72.15
64961;SHT31;51487;52.266;10.542;2023-06-22T08:08:00;25.11;71.94
64961;SHT31;51487;52.266;10.542;2023-06-22T08:10:26;25.34;70.91
64961;SHT31;51487;52.266;10.542;2023-06-22T08:12:51;25.45;70.57
64961;SHT31;51487;52.266;10.542;2023-06-22T08:15:18;25.34;71.21
64961;SHT31;51487;52.266;10.542;2023-06-22T08:17:45;25.25;71.21
64961;SHT31;51487;52.266;10.542;2023-06-22T08:20:13;25.41;70.57
64961;SHT31;51487;52.266;10.542;2023-06-22T08:22:40;25.31;71.45
64961;SHT31;51487;52.266;10.542;2023-06-22T08:25:08;25.30;71.39
64961;SHT31;51487;52.266;10.542;2023-06-22T08:27:34;25.30;71.35
64961;SHT31;51487;52.266;10.542;2023-06-22T08:30:00;25.31;71.08
64961;SHT31;51487;52.266;10.542;2023-06-22T08:32:28;25.38;71.78
64961;SHT31;51487;52.266;10.542;2023-06-22T08:34:57;25.21;71.37
64961;SHT31;51487;52.266;10.542;2023-06-22T08:37:23;25.04;71.66
64961;SHT31;51487;52.266;10.542;2023-06-22T08:39:59;25.18;71.66
64961;SHT31;51487;52.266;10.542;2023-06-22T08:42:25;25.30;71.82
64961;SHT31;51487;52.266;10.542;2023-06-22T08:44:51;25.07;71.34
64961;SHT31;51487;52.266;10.542;2023-06-22T08:47:17;25.24;71.76
64961;SHT31;51487;52.266;10.542;2023-06-22T08:49:42;25.28;71.70
64961;SHT31;51487;52.266;10.542;2023-06-22T08:52:08;25.38;71.48
64961;SHT31;51487;52.266;10.542;2023-06-22T08:54:33;25.73;70.84
64961;SHT31;51487;52.266;10.542;2023-06-22T08:57:01;25.68;71.11
64961;SHT31;51487;52.266;10.542;2023-06-22T08:59:27;25.86;71.28
64961;SHT31;51487;52.266;10.542;2023-06-22T09:01:53;25.93;70.62
64961;SHT31;51487;52.266;10.542;2023-06-22T09:04:19;25.93;70.35
64961;SHT31;51487;52.266;10.542;2023-06-22T09:06:48;26.04;70.67
64961;SHT31;51487;52.266;10.542;2023-06-22T09:09:16;26.20;70.56
64961;SHT31;51487;52.266;10.542;2023-06-22T09:11:42;26.07;70.63
64961;SHT31;51487;52.266;10.542;2023-06-22T09:14:09;26.09;70.95
64961;SHT31;51487;52.266;10.542;2023-06-22T09:16:35;26.16;71.13
64961;SHT31;51487;52.266;10.542;2023-06-22T09:19:01;26.28;70.29
64961;SHT31;51487;52.266;10.542;2023-06-22T09:21:26;26.30;71.03
64961;SHT31;51487;52.266;10.542;2023-06-22T09:23:52;26.49;70.10
64961;SHT31;51487;52.266;10.542;2023-06-22T09:26:18;26.62;69.60
64961;SHT31;51487;52.266;10.542;2023-06-22T09:28:44;26.69;69.36
64961;SHT31;51487;52.266;10.542;2023-06-22T09:31:09;26.79;69.42
64961;SHT31;51487;52.266;10.542;2023-06-22T09:33:36;26.91;69.72
64961;SHT31;51487;52.266;10.542;2023-06-22T09:36:05;26.69;69.62
64961;SHT31;51487;52.266;10.542;2023-06-22T09:38:38;26.74;70.05
64961;SHT31;51487;52.266;10.542;2023-06-22T09:41:04;26.78;69.80
64961;SHT31;51487;52.266;10.542;2023-06-22T09:43:31;26.64;70.85
64961;SHT31;51487;52.266;10.542;2023-06-22T09:45:57;26.81;69.64
64961;SHT31;51487;52.266;10.542;2023-06-22T09:48:23;27.07;70.16
64961;SHT31;51487;52.266;10.542;2023-06-22T09:50:48;27.25;68.95
64961;SHT31;51487;52.266;10.542;2023-06-22T09:53:14;27.27;68.82
64961;SHT31;51487;52.266;10.542;2023-06-22T09:55:39;27.22;69.43
64961;SHT31;51487;52.266;10.542;2023-06-22T09:58:05;27.36;69.34
64961;SHT31;51487;52.266;10.542;2023-06-22T10:00:30;27.17;67.88
64961;SHT31;51487;52.266;10.542;2023-06-22T10:02:57;27.29;68.31
64961;SHT31;51487;52.266;10.542;2023-06-22T10:05:23;27.20;67.76
64961;SHT31;51487;52.266;10.542;2023-06-22T10:07:48;27.36;67.88
64961;SHT31;51487;52.266;10.542;2023-06-22T10:10:14;27.58;67.85
64961;SHT31;51487;52.266;10.542;2023-06-22T10:12:55;27.77;67.03
64961;SHT31;51487;52.266;10.542;2023-06-22T10:15:21;27.94;65.84
64961;SHT31;51487;52.266;10.542;2023-06-22T10:17:47;28.12;65.10
64961;SHT31;51487;52.266;10.542;2023-06-22T10:20:13;28.08;65.87
64961;SHT31;51487;52.266;10.542;2023-06-22T10:22:44;27.88;66.39
64961;SHT31;51487;52.266;10.542;2023-06-22T10:25:11;27.80;66.71
64961;SHT31;51487;52.266;10.542;2023-06-22T10:27:37;27.78;66.96
64961;SHT31;51487;52.266;10.542;2023-06-22T10:30:07;27.78;66.59
64961;SHT31;51487;52.266;10.542;2023-06-22T10:32:33;27.77;66.71
64961;SHT31;51487;52.266;10.542;2023-06-22T10:34:58;27.70;67.17
64961;SHT31;51487;52.266;10.542;2023-06-22T10:37:24;27.68;67.05
64961;SHT31;51487;52.266;10.542;2023-06-22T10:39:50;27.64;66.96
64961;SHT31;51487;52.266;10.542;2023-06-22T10:42:15;27.25;68.28
64961;SHT31;51487;52.266;10.542;2023-06-22T10:44:41;27.39;67.85
64961;SHT31;51487;52.266;10.542;2023-06-22T10:47:08;27.54;67.30
64961;SHT31;51487;52.266;10.542;2023-06-22T10:49:34;27.83;66.02
64961;SHT31;51487;52.266;10.542;2023-06-22T10:51:59;27.87;65.87
64961;SHT31;51487;52.266;10.542;2023-06-22T10:54:25;28.08;65.79
64961;SHT31;51487;52.266;10.542;2023-06-22T10:56:50;28.31;65.87
64961;SHT31;51487;52.266;10.542;2023-06-22T10:59:16;28.45;65.17
64961;SHT31;51487;52.266;10.542;2023-06-22T11:01:41;28.36;65.32
64961;SHT31;51487;52.266;10.542;2023-06-22T11:04:07;28.22;65.03
64961;SHT31;51487;52.266;10.542;2023-06-22T11:06:32;28.06;65.23
64961;SHT31;51487;52.266;10.542;2023-06-22T11:08:58;28.08;65.44
64961;SHT31;51487;52.266;10.542;2023-06-22T11:11:25;27.76;65.76
64961;SHT31;51487;52.266;10.542;2023-06-22T11:13:51;27.81;65.74
64961;SHT31;51487;52.266;10.542;2023-06-22T11:16:16;27.83;66.14
64961;SHT31;51487;52.266;10.542;2023-06-22T11:18:42;27.77;65.77
64961;SHT31;51487;52.266;10.542;2023-06-22T11:21:07;27.98;64.95
64961;SHT31;51487;52.266;10.542;2023-06-22T11:23:33;28.23;63.96
64961;SHT31;51487;52.266;10.542;2023-06-22T11:25:58;28.33;64.67
64961;SHT31;51487;52.266;10.542;2023-06-22T11:28:24;28.28;64.04
64961;SHT31;51487;52.266;10.542;2023-06-22T11:30:49;28.38;64.34
64961;SHT31;51487;52.266;10.542;2023-06-22T11:33:15;28.39;63.54
64961;SHT31;51487;52.266;10.542;2023-06-22T11:35:40;28.56;63.92
64961;SHT31;51487;52.266;10.542;2023-06-22T11:38:06;28.74;61.86
64961;SHT31;51487;52.266;10.542;2023-06-22T11:40:32;28.83;62.44
64961;SHT31;51487;52.266;10.542;2023-06-22T11:42:58;28.94;60.94
64961;SHT31;51487;52.266;10.542;2023-06-22T11:45:23;29.01;60.88
64961;SHT31;51487;52.266;10.542;2023-06-22T11:47:49;29.00;61.14
64961;SHT31;51487;52.266;10.542;2023-06-22T11:50:17;29.04;60.94
64961;SHT31;51487;52.266;10.542;2023-06-22T11:52:43;29.07;60.13
64961;SHT31;51487;52.266;10.542;2023-06-22T11:55:08;29.08;59.10
64961;SHT31;51487;52.266;10.542;2023-06-22T11:57:36;29.14;59.38
64961;SHT31;51487;52.266;10.542;2023-06-22T12:00:04;29.01;60.47
64961;SHT31;51487;52.266;10.542;2023-06-22T12:02:41;29.08;61.21
64961;SHT31;51487;52.266;10.542;2023-06-22T12:05:07;28.97;60.72
64961;SHT31;51487;52.266;10.542;2023-06-22T12:07:33;28.89;60.79
64961;SHT31;51487;52.266;10.542;2023-06-22T12:09:59;28.73;60.71
64961;SHT31;51487;52.266;10.542;2023-06-22T12:12:24;28.96;60.46
64961;SHT31;51487;52.266;10.542;2023-06-22T12:14:50;29.11;60.03
64961;SHT31;51487;52.266;10.542;2023-06-22T12:17:15;29.31;60.40
64961;SHT31;51487;52.266;10.542;2023-06-22T12:19:41;29.37;60.57
64961;SHT31;51487;52.266;10.542;2023-06-22T12:22:06;29.42;60.57
64961;SHT31;51487;52.266;10.542;2023-06-22T12:24:32;29.38;60.32
64961;SHT31;51487;52.266;10.542;2023-06-22T12:26:57;29.27;60.13
64961;SHT31;51487;52.266;10.542;2023-06-22T12:29:23;29.25;60.03
64961;SHT31;51487;52.266;10.542;2023-06-22T12:31:48;29.54;58.75
64961;SHT31;51487;52.266;10.542;2023-06-22T12:34:14;29.69;59.16
64961;SHT31;51487;52.266;10.542;2023-06-22T12:36:39;29.80;59.00
64961;SHT31;51487;52.266;10.542;2023-06-22T12:39:05;30.02;58.53
64961;SHT31;51487;52.266;10.542;2023-06-22T12:41:31;29.78;59.63
64961;SHT31;51487;52.266;10.542;2023-06-22T12:43:56;29.90;59.24
64961;SHT31;51487;52.266;10.542;2023-06-22T12:46:21;29.83;59.32
64961;SHT31;51487;52.266;10.542;2023-06-22T12:48:47;29.72;58.92
64961;SHT31;51487;52.266;10.542;2023-06-22T12:51:21;29.70;58.69
64961;SHT31;51487;52.266;10.542;2023-06-22T12:53:47;29.72;59.28
64961;SHT31;51487;52.266;10.542;2023-06-22T12:56:13;29.75;58.95
64961;SHT31;51487;52.266;10.542;2023-06-22T12:58:38;29.68;58.07
64961;SHT31;51487;52.266;10.542;2023-06-22T13:01:03;29.70;58.27
64961;SHT31;51487;52.266;10.542;2023-06-22T13:03:29;29.78;58.39
64961;SHT31;51487;52.266;10.542;2023-06-22T13:05:54;29.90;58.32
64961;SHT31;51487;52.266;10.542;2023-06-22T13:08:20;29.96;59.29
64961;SHT31;51487;52.266;10.542;2023-06-22T13:10:46;29.96;59.09
64961;SHT31;51487;52.266;10.542;2023-06-22T13:13:11;30.19;58.41
64961;SHT31;51487;52.266;10.542;2023-06-22T13:15:36;30.44;58.69
64961;SHT31;51487;52.266;10.542;2023-06-22T13:18:02;30.54;58.29
64961;SHT31;51487;52.266;10.542;2023-06-22T13:20:29;30.34;58.27
64961;SHT31;51487;52.266;10.542;2023-06-22T13:22:54;30.43;57.53
64961;SHT31;51487;52.266;10.542;2023-06-22T13:25:21;30.44;57.35
64961;SHT31;51487;52.266;10.542;2023-06-22T13:27:49;30.71;57.19
64961;SHT31;51487;52.266;10.542;2023-06-22T13:30:15;30.65;57.24
64961;SHT31;51487;52.266;10.542;2023-06-22T13:32:41;30.74;57.56
64961;SHT31;51487;52.266;10.542;2023-06-22T13:35:11;30.48;57.51
64961;SHT31;51487;52.266;10.542;2023-06-22T13:37:37;30.24;57.93
64961;SHT31;51487;52.266;10.542;2023-06-22T13:40:05;30.03;58.08
64961;SHT31;51487;52.266;10.542;2023-06-22T13:42:32;29.92;57.86
64961;SHT31;51487;52.266;10.542;2023-06-22T13:44:58;29.96;58.52
64961;SHT31;51487;52.266;10.542;2023-06-22T13:47:24;29.90;58.14
64961;SHT31;51487;52.266;10.542;2023-06-22T13:49:49;29.86;58.57
64961;SHT31;51487;52.266;10.542;2023-06-22T13:52:15;29.76;59.03
64961;SHT31;51487;52.266;10.542;2023-06-22T13:54:40;29.42;60.02
64961;SHT31;51487;52.266;10.542;2023-06-22T13:57:06;29.27;60.30
64961;SHT31;51487;52.266;10.542;2023-06-22T13:59:32;29.15;61.01
64961;SHT31;51487;52.266;10.542;2023-06-22T14:01:57;29.00;61.42
64961;SHT31;51487;52.266;10.542;2023-06-22T14:04:23;28.99;61.41
64961;SHT31;51487;52.266;10.542;2023-06-22T14:06:49;29.04;61.08
64961;SHT31;51487;52.266;10.542;2023-06-22T14:09:15;28.87;61.38
64961;SHT31;51487;52.266;10.542;2023-06-22T14:11:40;28.94;61.37
64961;SHT31;51487;52.266;10.542;2023-06-22T14:14:06;29.00;61.34
64961;SHT31;51487;52.266;10.542;2023-06-22T14:16:31;29.00;61.31
64961;SHT31;51487;52.266;10.542;2023-06-22T14:18:57;29.01;61.32
64961;SHT31;51487;52.266;10.542;2023-06-22T14:21:22;29.03;60.88
64961;SHT31;51487;52.266;10.542;2023-06-22T14:23:48;29.01;61.28
64961;SHT31;51487;52.266;10.542;2023-06-22T14:26:18;29.01;61.33
64961;SHT31;51487;52.266;10.542;2023-06-22T14:28:46;28.86;62.37
64961;SHT31;51487;52.266;10.542;2023-06-22T14:31:18;28.97;62.25
64961;SHT31;51487;52.266;10.542;2023-06-22T14:33:47;28.97;62.25
64961;SHT31;51487;52.266;10.542;2023-06-22T14:36:15;29.14;61.07
64961;SHT31;51487;52.266;10.542;2023-06-22T14:38:41;29.17;61.63
64961;SHT31;51487;52.266;10.542;2023-06-22T14:41:06;29.17;62.07
64961;SHT31;51487;52.266;10.542;2023-06-22T14:43:32;29.21;63.43
64961;SHT31;51487;52.266;10.542;2023-06-22T14:45:57;29.34;64.33
64961;SHT31;51487;52.266;10.542;2023-06-22T14:48:23;29.41;63.37
64961;SHT31;51487;52.266;10.542;2023-06-22T14:50:49;29.39;62.87
64961;SHT31;51487;52.266;10.542;2023-06-22T14:53:14;29.27;61.74
64961;SHT31;51487;52.266;10.542;2023-06-22T14:55:40;29.31;61.39
64961;SHT31;51487;52.266;10.542;2023-06-22T14:58:06;29.08;62.10
64961;SHT31;51487;52.266;10.542;2023-06-22T15:00:32;29.00;62.57
64961;SHT31;51487;52.266;10.542;2023-06-22T15:02:57;28.82;63.25
64961;SHT31;51487;52.266;10.542;2023-06-22T15:05:25;28.96;62.77
64961;SHT31;51487;52.266;10.542;2023-06-22T15:07:50;28.91;62.18
64961;SHT31;51487;52.266;10.542;2023-06-22T15:10:16;28.91;62.08
64961;SHT31;51487;52.266;10.542;2023-06-22T15:12:41;28.82;62.69
64961;SHT31;51487;52.266;10.542;2023-06-22T15:15:07;28.83;62.44
64961;SHT31;51487;52.266;10.542;2023-06-22T15:17:33;28.82;62.77
64961;SHT31;51487;52.266;10.542;2023-06-22T15:19:59;28.69;63.31